Time;durP1;ratioP1;P1;durP2;ratioP2;P2;SDS_P1;SDS_P2;PMS_P1;PMS_P2;Temp;Humidity;BMP_temperature;BMP_pressure;BME280_temperature;BME280_humidity;BME280_pressure;Samples;Min_cycle;Max_cycle;Signal;HPM_P1;HPM_P2
2022/07/05 00:00:04;;;;;;;3.10;2.77;;;24.00;59.60;;;;;;5014738;28;20664;-75
2022/07/05 00:02:29;;;;;;;3.00;2.70;;;23.90;59.80;;;;;;5001183;28;20243;-75
2022/07/05 00:04:55;;;;;;;4.43;2.80;;;24.00;59.70;;;;;;5013724;28;20451;-75
2022/07/05 00:07:21;;;;;;;3.33;3.00;;;23.90;59.40;;;;;;5014407;28;20224;-74
2022/07/05 00:09:52;;;;;;;7.00;3.20;;;23.90;59.30;;;;;;5000652;28;20227;-75
2022/07/05 00:12:20;;;;;;;3.30;3.00;;;23.90;59.70;;;;;;5016537;28;20423;-74
2022/07/05 00:14:46;;;;;;;4.90;3.10;;;23.80;59.60;;;;;;5015873;28;20435;-75
2022/07/05 00:17:12;;;;;;;4.00;2.90;;;23.80;59.60;;;;;;5016148;28;21475;-74
2022/07/05 00:19:38;;;;;;;3.20;2.90;;;23.80;59.70;;;;;;5014687;28;20428;-75
2022/07/05 00:22:04;;;;;;;3.33;2.80;;;23.80;60.00;;;;;;5014098;28;20220;-75
2022/07/05 00:24:30;;;;;;;4.40;3.10;;;23.70;60.10;;;;;;5017592;28;20419;-75
2022/07/05 00:26:56;;;;;;;3.50;2.60;;;23.70;60.20;;;;;;5012511;28;20209;-74
2022/07/05 00:29:21;;;;;;;4.33;2.67;;;23.70;60.10;;;;;;5013067;28;20209;-75
2022/07/05 00:31:47;;;;;;;5.60;3.07;;;23.70;59.80;;;;;;5013584;28;20967;-74
2022/07/05 00:34:13;;;;;;;4.83;3.27;;;23.60;60.80;;;;;;5014105;28;20184;-75
2022/07/05 00:36:38;;;;;;;3.67;2.77;;;23.60;59.80;;;;;;5016782;28;20645;-75
2022/07/05 00:39:05;;;;;;;5.90;2.77;;;23.60;59.70;;;;;;5012691;28;20614;-74
2022/07/05 00:41:31;;;;;;;4.80;3.00;;;23.50;60.00;;;;;;5017508;28;20200;-75
2022/07/05 00:44:08;;;;;;;4.37;2.80;;;23.50;59.80;;;;;;5014618;28;20497;-74
2022/07/05 00:46:34;;;;;;;3.10;2.60;;;23.50;59.70;;;;;;5001928;28;20208;-75
2022/07/05 00:49:00;;;;;;;9.73;2.60;;;23.40;59.90;;;;;;5001999;28;20450;-75
2022/07/05 00:51:28;;;;;;;3.77;2.60;;;23.40;60.80;;;;;;5005934;28;20447;-75
2022/07/05 00:53:54;;;;;;;6.77;3.17;;;23.40;59.90;;;;;;5014971;28;20501;-74
2022/07/05 00:56:22;;;;;;;3.10;2.80;;;23.40;60.40;;;;;;5014992;28;20447;-74
2022/07/05 00:58:48;;;;;;;3.30;2.90;;;23.30;60.20;;;;;;5019377;28;20176;-73
2022/07/05 01:01:15;;;;;;;3.20;2.90;;;23.30;59.90;;;;;;5011862;28;20458;-75
2022/07/05 01:03:40;;;;;;;3.20;2.77;;;23.30;60.20;;;;;;5013382;28;20186;-75
2022/07/05 01:06:08;;;;;;;7.43;3.10;;;23.30;60.40;;;;;;5008564;28;20443;-75
2022/07/05 01:08:37;;;;;;;6.07;2.77;;;23.30;60.50;;;;;;5014529;28;20259;-75
2022/07/05 01:11:02;;;;;;;4.03;2.70;;;23.30;60.50;;;;;;5018790;28;20427;-74
2022/07/05 01:13:29;;;;;;;4.23;2.77;;;23.20;60.50;;;;;;5011936;28;20450;-74
2022/07/05 01:15:55;;;;;;;3.00;2.60;;;23.20;60.70;;;;;;5000536;28;20215;-74
2022/07/05 01:18:21;;;;;;;7.40;3.10;;;23.10;62.20;;;;;;4999412;28;20424;-75
2022/07/05 01:20:48;;;;;;;3.30;3.00;;;23.00;64.50;;;;;;5012600;28;21008;-74
2022/07/05 01:23:15;;;;;;;3.37;3.07;;;23.00;65.70;;;;;;5012590;28;20683;-74
2022/07/05 01:25:41;;;;;;;3.77;3.20;;;22.90;67.00;;;;;;5015527;28;20438;-75
2022/07/05 01:28:07;;;;;;;4.13;3.57;;;23.00;67.80;;;;;;5012585;28;20491;-75
2022/07/05 01:30:35;;;;;;;3.47;2.93;;;22.40;69.10;;;;;;5001497;28;20227;-74
2022/07/05 01:33:02;;;;;;;6.80;3.27;;;22.40;69.10;;;;;;5014480;28;20692;-75
2022/07/05 01:35:27;;;;;;;4.73;3.13;;;22.40;68.70;;;;;;5014023;28;20451;-75
2022/07/05 01:37:53;;;;;;;4.27;3.23;;;22.40;69.30;;;;;;5016522;28;21078;-74
2022/07/05 01:40:20;;;;;;;4.83;3.40;;;22.40;69.20;;;;;;5004196;28;20564;-74
2022/07/05 01:42:46;;;;;;;4.10;3.70;;;22.40;69.30;;;;;;5011915;28;20714;-75
2022/07/05 01:45:12;;;;;;;5.20;4.47;;;22.40;69.30;;;;;;5015789;28;20426;-75
2022/07/05 01:47:44;;;;;;;4.30;3.50;;;22.30;69.40;;;;;;4999168;28;20423;-75
2022/07/05 01:50:12;;;;;;;5.07;3.60;;;22.30;69.80;;;;;;5010404;28;20535;-74
2022/07/05 01:52:43;;;;;;;5.90;3.80;;;22.20;70.80;;;;;;4998647;28;20547;-74
2022/07/05 01:55:09;;;;;;;3.90;3.30;;;22.00;71.60;;;;;;4997621;28;20442;-75
2022/07/05 01:57:35;;;;;;;5.27;3.70;;;22.00;71.50;;;;;;5016162;28;21049;-74
2022/07/05 02:00:00;;;;;;;6.53;3.47;;;21.90;71.70;;;;;;5011750;28;20173;-74
2022/07/05 02:02:26;;;;;;;3.60;3.00;;;21.90;71.90;;;;;;5012525;28;20788;-75
2022/07/05 02:04:52;;;;;;;3.77;3.40;;;21.90;72.10;;;;;;5015974;28;20295;-75
2022/07/05 02:07:18;;;;;;;4.97;3.17;;;22.00;72.00;;;;;;5024385;28;20442;-74
2022/07/05 02:09:43;;;;;;;4.73;3.67;;;21.90;72.20;;;;;;5018392;28;20181;-73
2022/07/05 02:12:09;;;;;;;5.93;3.50;;;21.80;72.70;;;;;;5018982;28;20271;-75
2022/07/05 02:14:35;;;;;;;4.10;3.47;;;21.80;72.90;;;;;;5015537;28;20217;-75
2022/07/05 02:17:01;;;;;;;4.23;3.30;;;21.80;72.70;;;;;;5016075;28;20223;-74
2022/07/05 02:19:27;;;;;;;3.80;3.33;;;21.70;73.00;;;;;;5020473;28;20185;-75
2022/07/05 02:21:52;;;;;;;3.33;3.03;;;21.80;73.10;;;;;;5019881;28;20466;-75
2022/07/05 02:24:20;;;;;;;5.77;3.60;;;21.70;73.40;;;;;;5012830;28;20856;-75
2022/07/05 02:26:45;;;;;;;3.90;3.00;;;21.60;73.70;;;;;;5014897;28;20232;-74
2022/07/05 02:29:11;;;;;;;3.23;2.93;;;21.50;74.20;;;;;;5015797;28;20482;-74
2022/07/05 02:31:37;;;;;;;3.97;3.60;;;21.40;74.70;;;;;;5017250;28;20185;-74
2022/07/05 02:34:02;;;;;;;3.83;3.03;;;21.40;75.30;;;;;;5020640;28;20181;-74
2022/07/05 02:36:28;;;;;;;3.80;3.47;;;21.40;75.20;;;;;;5016413;28;20208;-75
2022/07/05 02:38:53;;;;;;;3.87;3.30;;;21.50;75.10;;;;;;5015935;28;20188;-75
2022/07/05 02:41:19;;;;;;;3.90;3.20;;;21.40;75.30;;;;;;5016693;28;20218;-75
2022/07/05 02:43:45;;;;;;;3.00;2.80;;;21.40;75.90;;;;;;5014489;28;20189;-75
2022/07/05 02:46:10;;;;;;;3.70;3.20;;;21.30;76.10;;;;;;5020523;28;20566;-75
2022/07/05 02:48:37;;;;;;;4.13;3.20;;;21.30;76.30;;;;;;5015450;28;20271;-75
2022/07/05 02:51:03;;;;;;;4.00;3.60;;;21.30;76.20;;;;;;5013600;28;20173;-75
2022/07/05 02:53:29;;;;;;;5.17;3.33;;;21.20;76.10;;;;;;5017994;28;20529;-74
2022/07/05 02:55:55;;;;;;;3.93;3.33;;;21.10;76.60;;;;;;5022353;28;20557;-74
2022/07/05 02:58:20;;;;;;;3.10;2.73;;;21.20;76.80;;;;;;5017611;28;20188;-74
2022/07/05 03:00:48;;;;;;;3.60;3.30;;;21.20;76.90;;;;;;5001045;28;20436;-75
2022/07/05 03:03:14;;;;;;;3.17;2.87;;;21.10;76.70;;;;;;5021975;28;20234;-75
2022/07/05 03:05:40;;;;;;;4.40;3.57;;;21.10;76.90;;;;;;5013088;28;20462;-75
2022/07/05 03:08:06;;;;;;;3.30;3.00;;;21.10;77.20;;;;;;5017017;28;20427;-74
2022/07/05 03:10:33;;;;;;;6.67;3.30;;;21.20;77.20;;;;;;5013877;28;20181;-74
2022/07/05 03:12:58;;;;;;;9.97;3.90;;;21.20;77.00;;;;;;5013403;28;20432;-75
2022/07/05 03:15:24;;;;;;;4.77;3.60;;;21.20;77.30;;;;;;5018056;28;20470;-74
2022/07/05 03:17:50;;;;;;;5.00;3.50;;;21.30;77.40;;;;;;5018984;28;20192;-75
2022/07/05 03:20:16;;;;;;;5.27;3.57;;;21.30;77.20;;;;;;5019640;28;20340;-74
2022/07/05 03:22:42;;;;;;;5.10;3.57;;;21.30;77.20;;;;;;5017393;28;21232;-74
2022/07/05 03:25:08;;;;;;;3.50;3.17;;;21.40;77.60;;;;;;5015836;28;20193;-75
2022/07/05 03:27:33;;;;;;;9.53;3.77;;;21.40;77.50;;;;;;5013862;28;20219;-74
2022/07/05 03:29:59;;;;;;;4.57;3.23;;;21.40;77.20;;;;;;5016439;28;20407;-75
2022/07/05 03:32:24;;;;;;;3.30;3.00;;;21.30;77.00;;;;;;5018525;28;20872;-75
2022/07/05 03:34:50;;;;;;;3.83;3.17;;;21.40;77.00;;;;;;5013257;28;20291;-75
2022/07/05 03:37:16;;;;;;;7.67;3.60;;;21.30;76.70;;;;;;5014327;28;20808;-75
2022/07/05 03:39:41;;;;;;;3.93;3.07;;;21.40;76.70;;;;;;5012297;28;20184;-75
2022/07/05 03:42:07;;;;;;;3.50;3.20;;;21.40;76.80;;;;;;5015598;28;20201;-75
2022/07/05 03:44:33;;;;;;;5.07;3.30;;;21.30;77.30;;;;;;5014403;28;20914;-75
2022/07/05 03:46:59;;;;;;;3.40;3.00;;;21.30;77.30;;;;;;5012892;28;20232;-75
2022/07/05 03:49:26;;;;;;;5.33;3.50;;;21.30;77.40;;;;;;5013207;28;20208;-74
2022/07/05 03:51:51;;;;;;;8.40;3.13;;;21.30;77.70;;;;;;5019446;28;20498;-75
2022/07/05 03:54:17;;;;;;;3.37;2.80;;;21.40;76.80;;;;;;5016877;28;21002;-74
2022/07/05 03:56:42;;;;;;;5.20;3.57;;;21.40;76.80;;;;;;5016617;28;20208;-74
2022/07/05 03:59:08;;;;;;;3.60;3.30;;;21.30;77.70;;;;;;5017345;28;20234;-74
2022/07/05 04:01:34;;;;;;;4.50;3.77;;;21.30;78.00;;;;;;5014908;28;20275;-75
2022/07/05 04:04:00;;;;;;;4.43;3.50;;;21.20;78.40;;;;;;5018226;28;20181;-74
2022/07/05 04:06:25;;;;;;;5.03;3.60;;;21.30;78.60;;;;;;5011626;28;20197;-74
2022/07/05 04:08:51;;;;;;;6.50;3.33;;;21.20;79.20;;;;;;5015399;28;20656;-75
2022/07/05 04:11:17;;;;;;;7.20;3.60;;;21.30;79.30;;;;;;5014320;28;20188;-75
2022/07/05 04:13:43;;;;;;;3.43;3.13;;;21.30;79.40;;;;;;5018997;28;20183;-74
2022/07/05 04:16:09;;;;;;;4.80;3.60;;;21.30;79.40;;;;;;5013692;28;20192;-75
2022/07/05 04:18:35;;;;;;;3.30;3.00;;;21.30;80.40;;;;;;5016336;28;20423;-74
2022/07/05 04:21:02;;;;;;;4.87;4.07;;;21.30;80.40;;;;;;5014437;28;20442;-74
2022/07/05 04:23:27;;;;;;;4.10;3.33;;;21.20;80.60;;;;;;5012159;28;21059;-75
2022/07/05 04:25:53;;;;;;;3.80;3.30;;;21.20;80.70;;;;;;5015316;28;20459;-74
2022/07/05 04:28:19;;;;;;;4.27;3.63;;;21.10;80.80;;;;;;5012709;28;20731;-74
2022/07/05 04:30:44;;;;;;;5.27;3.70;;;20.90;82.00;;;;;;5001247;28;21055;-74
2022/07/05 04:33:10;;;;;;;6.67;3.80;;;20.80;82.50;;;;;;5014468;28;20246;-75
2022/07/05 04:35:35;;;;;;;4.27;3.50;;;20.80;82.80;;;;;;5015140;28;20211;-74
2022/07/05 04:38:01;;;;;;;3.90;3.60;;;21.00;82.70;;;;;;5017952;28;20584;-74
2022/07/05 04:40:27;;;;;;;4.70;3.60;;;21.00;82.00;;;;;;5013353;28;20181;-75
2022/07/05 04:42:52;;;;;;;6.30;4.00;;;20.80;82.60;;;;;;5014385;28;20264;-75
2022/07/05 04:45:18;;;;;;;4.60;4.13;;;20.60;83.30;;;;;;5010898;28;20169;-74
2022/07/05 04:47:43;;;;;;;4.70;3.77;;;20.60;84.30;;;;;;5000158;28;20888;-75
2022/07/05 04:50:09;;;;;;;6.80;3.43;;;20.70;83.20;;;;;;5015601;28;20184;-73
2022/07/05 04:52:35;;;;;;;9.50;3.80;;;20.60;83.40;;;;;;5015270;28;20223;-74
2022/07/05 04:55:01;;;;;;;4.77;4.27;;;20.60;83.70;;;;;;5018893;28;20660;-75
2022/07/05 04:57:36;;;;;;;5.87;3.60;;;20.50;83.70;;;;;;5012170;28;20329;-75
2022/07/05 05:00:01;;;;;;;4.77;3.67;;;20.50;83.80;;;;;;5015574;28;20558;-75
2022/07/05 05:02:27;;;;;;;4.10;3.70;;;20.30;84.40;;;;;;5014930;28;20582;-75
2022/07/05 05:04:52;;;;;;;3.57;3.27;;;20.20;83.90;;;;;;5013237;28;20185;-75
2022/07/05 05:07:18;;;;;;;3.17;2.87;;;20.30;83.90;;;;;;5013465;28;20200;-75
2022/07/05 05:09:44;;;;;;;5.33;4.37;;;20.20;83.50;;;;;;5018267;28;20185;-74
2022/07/05 05:12:09;;;;;;;7.30;3.37;;;20.20;83.60;;;;;;5018114;28;20815;-75
2022/07/05 05:14:35;;;;;;;5.70;3.23;;;20.20;83.60;;;;;;5016332;28;20544;-74
2022/07/05 05:17:00;;;;;;;12.10;3.73;;;19.90;84.50;;;;;;5019705;28;20209;-75
2022/07/05 05:19:26;;;;;;;5.93;3.30;;;20.20;84.40;;;;;;5012083;28;20195;-75
2022/07/05 05:21:51;;;;;;;3.30;3.00;;;20.20;84.00;;;;;;5016526;28;20223;-74
2022/07/05 05:24:17;;;;;;;9.67;3.50;;;20.20;83.90;;;;;;5015998;28;20187;-75
2022/07/05 05:26:43;;;;;;;6.13;3.73;;;20.10;84.60;;;;;;5010222;28;20197;-74
2022/07/05 05:29:08;;;;;;;4.07;3.67;;;20.10;84.90;;;;;;5020985;28;20243;-75
2022/07/05 05:31:34;;;;;;;4.40;3.60;;;20.00;85.10;;;;;;5015990;28;20185;-75
2022/07/05 05:33:59;;;;;;;7.60;3.63;;;20.00;85.00;;;;;;5012644;28;20703;-74
2022/07/05 05:36:25;;;;;;;4.30;3.90;;;19.90;86.00;;;;;;5011569;28;20217;-75
2022/07/05 05:38:50;;;;;;;5.23;3.60;;;20.10;86.10;;;;;;5011939;28;20192;-75
2022/07/05 05:41:16;;;;;;;4.63;3.40;;;20.20;86.20;;;;;;5014076;28;20234;-75
2022/07/05 05:43:42;;;;;;;7.20;5.67;;;20.20;86.60;;;;;;5010605;28;20181;-75
2022/07/05 05:46:07;;;;;;;4.73;3.90;;;20.30;86.30;;;;;;5015496;28;20239;-74
2022/07/05 05:48:33;;;;;;;4.47;3.50;;;20.20;85.90;;;;;;5017140;28;20193;-75
2022/07/05 05:50:59;;;;;;;5.33;3.70;;;20.30;86.70;;;;;;5020105;28;20194;-74
2022/07/05 05:53:25;;;;;;;3.37;3.07;;;20.40;86.50;;;;;;5014060;28;20250;-74
2022/07/05 05:55:51;;;;;;;5.13;3.40;;;20.50;86.20;;;;;;5012095;28;20478;-74
2022/07/05 05:58:23;;;;;;;7.70;3.83;;;20.50;86.10;;;;;;5021963;28;20187;-74
2022/07/05 06:00:50;;;;;;;5.30;3.70;;;20.40;86.80;;;;;;5010941;28;20264;-74
2022/07/05 06:03:16;;;;;;;4.60;3.83;;;20.50;86.70;;;;;;5016901;28;20505;-75
2022/07/05 06:05:43;;;;;;;4.20;3.43;;;20.60;86.60;;;;;;5016610;28;20522;-74
2022/07/05 06:08:08;;;;;;;5.20;3.83;;;20.80;86.30;;;;;;5012423;28;20447;-75
2022/07/05 06:10:35;;;;;;;4.07;3.40;;;20.80;86.10;;;;;;5013361;28;20428;-74
2022/07/05 06:13:04;;;;;;;6.47;4.00;;;20.80;86.40;;;;;;5015565;28;20185;-74
2022/07/05 06:15:30;;;;;;;6.03;4.30;;;20.80;87.60;;;;;;5014115;28;20438;-75
2022/07/05 06:17:56;;;;;;;5.87;4.20;;;21.00;87.70;;;;;;5013003;28;20519;-75
2022/07/05 06:20:24;;;;;;;6.93;4.30;;;20.80;87.60;;;;;;5016242;28;20517;-74
2022/07/05 06:22:51;;;;;;;8.40;4.40;;;20.70;88.00;;;;;;4995775;28;20603;-74
2022/07/05 06:25:16;;;;;;;5.60;4.53;;;20.70;88.40;;;;;;5014834;28;20426;-74
2022/07/05 06:27:47;;;;;;;4.30;3.90;;;20.80;88.10;;;;;;5011994;28;20808;-74
2022/07/05 06:30:15;;;;;;;5.57;4.03;;;20.90;86.60;;;;;;5014502;28;20176;-75
2022/07/05 06:32:43;;;;;;;3.73;3.33;;;20.90;87.00;;;;;;5013025;28;20431;-74
2022/07/05 06:35:09;;;;;;;4.30;3.23;;;21.00;86.90;;;;;;5018777;28;20435;-75
2022/07/05 06:37:43;;;;;;;6.53;4.07;;;21.10;85.70;;;;;;5014890;28;20439;-74
2022/07/05 06:40:10;;;;;;;4.67;3.50;;;21.10;85.90;;;;;;5017062;28;20482;-74
2022/07/05 06:42:36;;;;;;;5.43;3.60;;;21.10;85.00;;;;;;5009049;28;20506;-74
2022/07/05 06:45:02;;;;;;;6.00;3.27;;;21.20;84.90;;;;;;5015260;28;20467;-73
2022/07/05 06:47:28;;;;;;;5.23;3.00;;;21.20;84.50;;;;;;5013525;28;20831;-75
2022/07/05 06:49:53;;;;;;;4.63;3.53;;;21.30;85.00;;;;;;5011802;28;20973;-75
2022/07/05 06:52:19;;;;;;;6.40;3.80;;;21.40;85.10;;;;;;5013356;28;20215;-75
2022/07/05 06:54:44;;;;;;;6.57;3.80;;;21.50;81.70;;;;;;5015276;28;20227;-74
2022/07/05 06:57:10;;;;;;;4.90;3.57;;;21.50;82.60;;;;;;5017168;28;20215;-74
2022/07/05 06:59:36;;;;;;;5.17;3.77;;;21.50;83.70;;;;;;5016377;28;20191;-75
2022/07/05 07:02:02;;;;;;;4.67;3.70;;;21.60;83.40;;;;;;5021018;28;20203;-74
2022/07/05 07:04:27;;;;;;;6.20;4.50;;;21.70;81.90;;;;;;5015451;28;21004;-74
2022/07/05 07:06:53;;;;;;;13.43;3.53;;;21.70;81.60;;;;;;5015631;28;20208;-74
2022/07/05 07:09:20;;;;;;;4.27;3.87;;;21.70;82.20;;;;;;5016953;28;20181;-74
2022/07/05 07:11:45;;;;;;;3.90;3.20;;;21.80;82.00;;;;;;5015490;28;20276;-74
2022/07/05 07:14:11;;;;;;;4.97;3.50;;;21.80;81.80;;;;;;5013538;28;20560;-75
2022/07/05 07:16:37;;;;;;;3.70;3.40;;;22.00;81.70;;;;;;5013329;28;20212;-74
2022/07/05 07:19:03;;;;;;;7.13;3.50;;;22.00;79.90;;;;;;5017131;28;20428;-74
2022/07/05 07:21:28;;;;;;;4.30;3.37;;;22.00;79.70;;;;;;5019999;28;20334;-73
2022/07/05 07:23:54;;;;;;;5.10;3.70;;;22.10;80.00;;;;;;5017362;28;20212;-74
2022/07/05 07:26:19;;;;;;;5.07;2.83;;;22.20;80.10;;;;;;5015010;28;20359;-75
2022/07/05 07:28:45;;;;;;;6.50;3.40;;;22.30;79.50;;;;;;5016755;28;20188;-74
2022/07/05 07:31:11;;;;;;;6.10;3.30;;;22.40;77.10;;;;;;5014815;28;20184;-74
2022/07/05 07:33:36;;;;;;;4.43;3.27;;;22.30;77.70;;;;;;5022011;28;20470;-73
2022/07/05 07:36:03;;;;;;;7.77;3.87;;;22.30;78.40;;;;;;5020137;28;20239;-74
2022/07/05 07:38:28;;;;;;;6.73;3.53;;;22.30;78.80;;;;;;5010518;28;20271;-74
2022/07/05 07:40:54;;;;;;;4.57;3.50;;;22.30;79.30;;;;;;5012799;28;20475;-73
2022/07/05 07:43:19;;;;;;;3.73;3.43;;;22.40;79.10;;;;;;5014574;28;20249;-75
2022/07/05 07:45:45;;;;;;;5.83;3.63;;;22.50;78.20;;;;;;5014424;28;20339;-74
2022/07/05 07:48:11;;;;;;;6.83;4.23;;;22.60;77.10;;;;;;5020193;28;20293;-74
2022/07/05 07:50:37;;;;;;;12.40;6.40;;;22.60;76.80;;;;;;5018431;28;20435;-74
2022/07/05 07:53:02;;;;;;;7.10;3.87;;;22.80;76.10;;;;;;5015586;28;20200;-73
2022/07/05 07:55:29;;;;;;;4.60;3.30;;;22.90;75.50;;;;;;5014542;28;20249;-75
2022/07/05 07:57:55;;;;;;;6.93;4.53;;;22.90;75.70;;;;;;5021440;28;20584;-75
2022/07/05 08:00:20;;;;;;;4.13;3.60;;;22.90;74.80;;;;;;5015209;28;20439;-75
2022/07/05 08:02:46;;;;;;;5.63;3.60;;;23.00;75.00;;;;;;5012360;28;20307;-75
2022/07/05 08:05:12;;;;;;;8.67;3.60;;;23.00;75.10;;;;;;5013666;28;20177;-73
2022/07/05 08:07:37;;;;;;;4.07;3.50;;;23.10;75.30;;;;;;5012990;28;20181;-74
2022/07/05 08:10:04;;;;;;;7.50;3.00;;;23.30;74.10;;;;;;5016568;28;20189;-74
2022/07/05 08:12:30;;;;;;;7.53;3.47;;;23.20;74.20;;;;;;5018096;28;20311;-75
2022/07/05 08:14:56;;;;;;;5.37;4.07;;;23.30;74.10;;;;;;5012357;28;20534;-75
2022/07/05 08:17:21;;;;;;;6.30;3.30;;;23.30;74.10;;;;;;5019221;28;20204;-73
2022/07/05 08:22:31;;;;;;;4.10;3.30;;;23.50;73.80;;;;;;5011155;28;20987;-75
2022/07/05 08:24:57;;;;;;;4.73;3.30;;;23.50;72.70;;;;;;5014862;28;20432;-75
2022/07/05 08:27:23;;;;;;;6.30;3.60;;;23.70;72.80;;;;;;5016980;28;20201;-74
2022/07/05 08:29:49;;;;;;;5.33;3.50;;;23.70;72.20;;;;;;5015239;28;20247;-74
2022/07/05 08:32:15;;;;;;;6.43;3.37;;;23.70;71.20;;;;;;5017853;28;20435;-74
2022/07/05 08:34:42;;;;;;;6.33;4.00;;;23.70;70.20;;;;;;5014030;28;20436;-75
2022/07/05 08:37:08;;;;;;;4.93;3.33;;;23.80;70.30;;;;;;5015636;28;20447;-73
2022/07/05 08:39:34;;;;;;;4.83;3.07;;;23.80;69.90;;;;;;5014955;28;20574;-74
2022/07/05 08:42:00;;;;;;;5.37;3.50;;;23.80;69.40;;;;;;5012665;28;20523;-74
2022/07/05 08:44:28;;;;;;;4.00;2.80;;;23.90;69.00;;;;;;5015689;28;20826;-75
2022/07/05 08:46:56;;;;;;;4.80;3.10;;;24.00;68.80;;;;;;5015180;28;21033;-74
2022/07/05 08:49:24;;;;;;;7.90;4.73;;;24.10;68.60;;;;;;5012857;28;20435;-75
2022/07/05 08:51:50;;;;;;;4.00;3.50;;;24.20;68.10;;;;;;5002921;28;20988;-74
2022/07/05 08:54:16;;;;;;;6.97;3.27;;;24.30;68.20;;;;;;5014627;28;20447;-75
2022/07/05 08:56:45;;;;;;;3.20;2.90;;;24.30;68.50;;;;;;5013034;28;20455;-74
2022/07/05 08:59:11;;;;;;;3.27;2.97;;;24.40;67.90;;;;;;5014992;28;20921;-73
2022/07/05 09:01:39;;;;;;;5.00;3.17;;;24.50;67.00;;;;;;5019311;28;20479;-74
2022/07/05 09:04:07;;;;;;;4.37;3.57;;;24.50;67.20;;;;;;5012721;28;20416;-75
2022/07/05 09:06:36;;;;;;;4.73;3.00;;;24.60;66.90;;;;;;5014689;28;20463;-74
2022/07/05 09:09:03;;;;;;;4.27;3.20;;;24.60;66.40;;;;;;5014895;28;20435;-74
2022/07/05 09:11:37;;;;;;;5.00;3.53;;;24.40;67.10;;;;;;5011620;28;20419;-75
2022/07/05 09:14:05;;;;;;;5.17;3.03;;;24.50;67.30;;;;;;5011628;28;20800;-75
2022/07/05 09:16:32;;;;;;;3.77;3.10;;;24.60;67.30;;;;;;5011220;28;20463;-74
2022/07/05 09:19:06;;;;;;;4.63;3.20;;;24.60;67.40;;;;;;5014799;28;21012;-73
2022/07/05 09:21:31;;;;;;;4.67;3.30;;;24.70;66.50;;;;;;5016225;28;20421;-74
2022/07/05 09:24:09;;;;;;;3.87;3.47;;;24.60;66.50;;;;;;5011680;28;20432;-74
2022/07/05 09:26:40;;;;;;;7.40;2.90;;;24.80;66.30;;;;;;5012663;28;20689;-75
2022/07/05 09:29:14;;;;;;;4.40;3.20;;;24.80;65.00;;;;;;5016256;28;20463;-75
2022/07/05 09:31:42;;;;;;;6.50;3.10;;;24.90;65.80;;;;;;5015656;28;20503;-75
2022/07/05 09:34:08;;;;;;;3.80;3.10;;;24.90;64.50;;;;;;5014145;28;20431;-76
2022/07/05 09:36:51;;;;;;;3.87;2.90;;;25.00;64.50;;;;;;5010464;28;20535;-73
2022/07/05 09:39:37;;;;;;;5.77;2.80;;;25.00;63.50;;;;;;5011948;28;20180;-72
2022/07/05 09:42:23;;;;;;;4.37;3.40;;;25.10;63.10;;;;;;5018469;28;21051;-74
2022/07/05 09:44:56;;;;;;;4.10;2.97;;;25.20;62.70;;;;;;5014411;28;20442;-73
2022/07/05 09:47:24;;;;;;;4.97;3.27;;;25.30;62.40;;;;;;5011299;28;20531;-73
2022/07/05 09:49:54;;;;;;;3.10;2.80;;;25.20;61.70;;;;;;5015470;28;20428;-73
2022/07/05 09:52:38;;;;;;;4.00;2.83;;;25.30;62.40;;;;;;5012924;28;20444;-76
2022/07/05 09:55:04;;;;;;;3.07;2.77;;;25.40;61.90;;;;;;5015382;28;20459;-75
2022/07/05 09:57:30;;;;;;;3.40;3.10;;;25.60;60.50;;;;;;5011447;28;20514;-76
2022/07/05 10:00:01;;;;;;;3.50;3.20;;;25.60;60.30;;;;;;4997626;28;20284;-74
2022/07/05 10:02:42;;;;;;;5.17;2.70;;;25.50;59.90;;;;;;5013894;28;20456;-76
2022/07/05 10:05:13;;;;;;;3.50;2.43;;;25.40;59.10;;;;;;5011649;28;20815;-73
2022/07/05 10:07:41;;;;;;;6.80;3.10;;;25.40;58.80;;;;;;5011856;28;20812;-74
2022/07/05 10:10:09;;;;;;;3.63;2.67;;;25.40;58.50;;;;;;5014082;28;20419;-73
2022/07/05 10:12:36;;;;;;;4.30;3.27;;;25.50;59.00;;;;;;5012729;28;20546;-73
2022/07/05 10:15:03;;;;;;;4.00;3.10;;;25.60;58.10;;;;;;5011858;28;20435;-73
2022/07/05 10:17:33;;;;;;;3.80;2.93;;;25.70;58.00;;;;;;5009585;28;20498;-74
2022/07/05 10:19:59;;;;;;;2.80;2.50;;;25.70;58.20;;;;;;5008327;28;20474;-74
2022/07/05 10:22:27;;;;;;;3.80;3.03;;;25.80;57.30;;;;;;5009785;28;20839;-73
2022/07/05 10:24:54;;;;;;;3.03;2.77;;;25.90;56.40;;;;;;5015973;28;20497;-73
2022/07/05 10:27:20;;;;;;;8.80;2.63;;;26.00;56.40;;;;;;5016128;28;20538;-74
2022/07/05 10:29:48;;;;;;;2.90;2.60;;;26.00;57.10;;;;;;5013944;28;20507;-74
2022/07/05 10:32:15;;;;;;;4.23;2.80;;;26.00;57.20;;;;;;5021251;28;20938;-74
2022/07/05 10:34:42;;;;;;;2.80;2.57;;;26.10;55.90;;;;;;5014807;28;20534;-73
2022/07/05 10:37:08;;;;;;;5.23;2.97;;;26.10;55.60;;;;;;5017475;28;20533;-72
2022/07/05 10:39:34;;;;;;;2.57;2.37;;;26.00;56.40;;;;;;5015032;28;20507;-73
2022/07/05 10:42:01;;;;;;;3.23;2.70;;;26.20;56.70;;;;;;5018493;28;21034;-74
2022/07/05 10:44:32;;;;;;;3.10;2.80;;;26.10;56.70;;;;;;5017275;28;20519;-74
2022/07/05 10:47:11;;;;;;;4.93;2.67;;;26.30;57.30;;;;;;5016617;28;20455;-74
2022/07/05 10:49:37;;;;;;;3.27;2.70;;;26.30;56.50;;;;;;5013483;28;20415;-73
2022/07/05 10:52:04;;;;;;;3.60;2.80;;;26.40;55.40;;;;;;5014285;28;20419;-74
2022/07/05 10:54:29;;;;;;;8.33;2.90;;;26.50;56.10;;;;;;5012345;28;20445;-74
2022/07/05 10:57:23;;;;;;;2.47;2.27;;;26.60;55.80;;;;;;5015718;28;20451;-74
2022/07/05 11:00:09;;;;;;;3.80;2.50;;;26.50;53.00;;;;;;5019086;28;20185;-74
2022/07/05 11:02:36;;;;;;;2.67;2.47;;;26.50;53.00;;;;;;5016244;28;20981;-74
2022/07/05 11:05:03;;;;;;;2.70;2.50;;;26.70;53.20;;;;;;5017471;28;20422;-75
2022/07/05 11:07:57;;;;;;;2.63;2.43;;;26.90;54.10;;;;;;5014192;28;20454;-74
2022/07/05 11:10:22;;;;;;;3.33;3.03;;;27.10;54.10;;;;;;5015391;28;20467;-74
2022/07/05 11:12:48;;;;;;;3.33;2.93;;;27.10;54.00;;;;;;5014508;28;20436;-73
2022/07/05 11:15:14;;;;;;;4.93;2.67;;;26.90;54.00;;;;;;5015139;28;20189;-73
2022/07/05 11:17:40;;;;;;;3.00;2.70;;;26.90;54.10;;;;;;5018042;28;20334;-74
2022/07/05 11:20:09;;;;;;;3.03;2.83;;;26.80;53.70;;;;;;5016509;28;20193;-74
2022/07/05 11:22:41;;;;;;;3.33;2.70;;;26.80;53.70;;;;;;5017456;28;20236;-74
2022/07/05 11:25:09;;;;;;;3.37;3.07;;;27.00;53.70;;;;;;5018452;28;20462;-73
2022/07/05 11:27:35;;;;;;;6.33;2.50;;;27.10;53.10;;;;;;5018568;28;20424;-75
2022/07/05 11:30:01;;;;;;;2.80;2.60;;;27.20;53.50;;;;;;5014002;28;20490;-75
2022/07/05 11:32:30;;;;;;;4.63;2.67;;;27.40;53.50;;;;;;5015873;28;20459;-74
2022/07/05 11:35:16;;;;;;;3.20;2.80;;;27.60;53.40;;;;;;5020273;28;20424;-75
2022/07/05 11:38:06;;;;;;;2.87;2.50;;;27.90;53.20;;;;;;5012172;28;20428;-74
2022/07/05 11:40:36;;;;;;;2.70;2.30;;;28.00;52.80;;;;;;5013510;28;20436;-74
2022/07/05 11:43:02;;;;;;;3.80;2.70;;;28.20;53.50;;;;;;5014128;28;20558;-74
2022/07/05 11:45:29;;;;;;;4.47;2.90;;;28.40;51.90;;;;;;5014227;28;20476;-75
2022/07/05 11:47:58;;;;;;;3.20;2.80;;;28.60;51.90;;;;;;5019490;28;20439;-74
2022/07/05 11:50:29;;;;;;;3.80;3.17;;;28.50;52.20;;;;;;5015985;28;20419;-74
2022/07/05 11:52:54;;;;;;;4.33;3.00;;;28.40;52.30;;;;;;5019512;28;20465;-74
2022/07/05 11:55:20;;;;;;;4.63;2.60;;;28.80;51.80;;;;;;5020865;28;20439;-75
2022/07/05 11:57:51;;;;;;;3.83;2.80;;;29.20;51.20;;;;;;4999843;28;20219;-75
2022/07/05 12:00:28;;;;;;;5.13;2.33;;;29.50;51.10;;;;;;5016140;28;20196;-74
2022/07/05 12:02:54;;;;;;;7.80;2.80;;;29.70;51.00;;;;;;5015466;28;20466;-75
2022/07/05 12:05:19;;;;;;;3.43;2.80;;;30.00;49.50;;;;;;5017013;28;21358;-75
2022/07/05 12:07:52;;;;;;;4.17;2.70;;;30.30;49.30;;;;;;5015245;28;20630;-76
2022/07/05 12:13:07;;;;;;;3.43;2.50;;;32.90;47.20;;;;;;5017493;28;20505;-76
2022/07/05 12:15:32;;;;;;;3.20;2.10;;;34.80;44.30;;;;;;5020154;28;20876;-74
2022/07/05 12:18:04;;;;;;;3.60;2.60;;;36.30;43.10;;;;;;5019226;28;20432;-75
2022/07/05 12:20:31;;;;;;;2.60;2.40;;;37.60;41.50;;;;;;5017291;28;20273;-76
2022/07/05 12:22:58;;;;;;;4.17;2.67;;;38.20;39.30;;;;;;5016290;28;20472;-74
2022/07/05 12:25:25;;;;;;;2.93;2.60;;;38.50;38.70;;;;;;5001244;28;20459;-76
2022/07/05 12:27:53;;;;;;;3.07;2.67;;;39.80;38.20;;;;;;5014632;28;20435;-75
2022/07/05 12:30:19;;;;;;;2.80;2.60;;;40.00;36.30;;;;;;5020934;28;20434;-76
2022/07/05 12:33:05;;;;;;;3.33;3.03;;;39.10;37.10;;;;;;5015584;28;20426;-76
2022/07/05 12:35:44;;;;;;;3.53;3.10;;;38.00;38.50;;;;;;5013869;28;20503;-76
2022/07/05 12:38:14;;;;;;;2.60;2.33;;;38.00;37.90;;;;;;4996250;28;20396;-76
2022/07/05 12:40:43;;;;;;;3.40;2.40;;;38.10;37.10;;;;;;5011843;28;20417;-76
2022/07/05 12:43:14;;;;;;;2.70;2.43;;;38.40;36.90;;;;;;5020703;28;20433;-76
2022/07/05 12:45:42;;;;;;;2.80;2.60;;;37.70;36.90;;;;;;5017320;28;20422;-76
2022/07/05 12:48:09;;;;;;;3.87;2.50;;;36.80;38.00;;;;;;5018106;28;20572;-75
2022/07/05 12:50:52;;;;;;;2.97;2.50;;;37.10;37.70;;;;;;5017331;28;21101;-75